createdAt,value
2019-04-07T00:01:10.592Z,99317.33
2019-04-07T00:03:38.112Z,99318.50
2019-04-07T00:06:05.551Z,99308.44
2019-04-07T00:08:32.980Z,99312.65
2019-04-07T00:11:00.487Z,99309.94
2019-04-07T00:13:28.202Z,99319.66
2019-04-07T00:15:55.786Z,99317.72
2019-04-07T00:18:24.203Z,99315.64
2019-04-07T00:20:51.632Z,99318.11
2019-04-07T00:23:19.032Z,99317.28
2019-04-07T00:25:46.768Z,99314.03
2019-04-07T00:28:14.378Z,99316.31
2019-04-07T00:30:42.409Z,99310.38
2019-04-07T00:33:10.117Z,99312.33
2019-04-07T00:35:37.650Z,99310.74
2019-04-07T00:38:05.137Z,99308.80
2019-04-07T00:40:32.512Z,99310.38
2019-04-07T00:42:59.953Z,99308.63
2019-04-07T00:45:27.354Z,99313.00
2019-04-07T00:47:54.797Z,99312.40
2019-04-07T00:50:22.264Z,99309.30
2019-04-07T00:52:50.203Z,99316.71
2019-04-07T00:55:17.720Z,99315.50
2019-04-07T00:57:45.631Z,99304.50
2019-04-07T01:00:16.497Z,99307.39
2019-04-07T01:02:44.038Z,99314.30
2019-04-07T01:05:11.659Z,99311.09
2019-04-07T01:07:41.026Z,99309.94
2019-04-07T01:10:08.733Z,99311.70
2019-04-07T01:12:36.941Z,99305.91
2019-04-07T01:15:07.857Z,99305.36
2019-04-07T01:17:35.367Z,99303.12
2019-04-07T01:20:04.387Z,99309.19
2019-04-07T01:22:31.922Z,99312.06
2019-04-07T01:24:59.465Z,99313.97
2019-04-07T01:27:27.072Z,99313.78
2019-04-07T01:29:54.484Z,99314.83
2019-04-07T01:32:22.465Z,99314.02
2019-04-07T01:34:50.347Z,99313.61
2019-04-07T01:37:17.953Z,99315.19
2019-04-07T01:39:45.833Z,99315.86
2019-04-07T01:42:22.921Z,99314.94
2019-04-07T01:45:12.743Z,99312.32
2019-04-07T01:47:55.192Z,99315.05
2019-04-07T01:50:41.775Z,99315.76
2019-04-07T01:53:25.416Z,99318.59
2019-04-07T01:56:05.438Z,99320.46
2019-04-07T01:58:56.116Z,99316.76
2019-04-07T02:01:43.904Z,99315.86
2019-04-07T02:04:29.417Z,99319.48
2019-04-07T02:07:16.382Z,99308.24
2019-04-07T02:10:02.542Z,99317.24
2019-04-07T02:12:53.160Z,99310.61
2019-04-07T02:15:35.878Z,99311.47
2019-04-07T02:18:25.748Z,99308.25
2019-04-07T02:21:03.417Z,99315.67
2019-04-07T02:24:00.039Z,99315.97
2019-04-07T02:26:36.975Z,99311.45
2019-04-07T02:29:24.628Z,99312.98
2019-04-07T02:32:05.462Z,99319.31
2019-04-07T02:34:43.944Z,99317.59
2019-04-07T02:37:31.331Z,99316.30
2019-04-07T02:40:31.174Z,99319.42
2019-04-07T02:43:31.058Z,99317.89
2019-04-07T02:46:31.286Z,99311.73
2019-04-07T02:49:21.157Z,99310.65
2019-04-07T02:52:16.867Z,99316.24
2019-04-07T02:55:04.503Z,99313.47
2019-04-07T02:57:44.541Z,99318.83
2019-04-07T03:00:44.483Z,99319.53
2019-04-07T03:03:31.118Z,99315.64
2019-04-07T03:06:37.475Z,99320.55
2019-04-07T03:08:59.738Z,99318.76
2019-04-07T03:11:56.414Z,99317.11
2019-04-07T03:14:50.617Z,99327.57
2019-04-07T03:17:52.674Z,99322.13
2019-04-07T03:20:26.952Z,99331.11
2019-04-07T03:23:14.712Z,99328.52
2019-04-07T03:25:55.008Z,99327.93
2019-04-07T03:28:35.220Z,99327.95
2019-04-07T03:31:22.435Z,99331.63
2019-04-07T03:34:14.515Z,99334.48
2019-04-07T03:37:19.084Z,99332.22
2019-04-07T03:39:49.845Z,99327.37
2019-04-07T03:42:38.459Z,99338.01
2019-04-07T03:45:28.677Z,99327.23
2019-04-07T03:48:06.901Z,99327.59
2019-04-07T03:50:40.919Z,99323.34
2019-04-07T03:53:27.118Z,99325.00
2019-04-07T03:56:17.062Z,99326.30
2019-04-07T03:58:53.828Z,99324.77
2019-04-07T04:01:41.459Z,99326.55
2019-04-07T04:04:31.476Z,99322.05
2019-04-07T04:07:26.590Z,99328.34
2019-04-07T04:10:17.807Z,99325.48
2019-04-07T04:13:05.151Z,99327.27
2019-04-07T04:15:41.553Z,99332.25
2019-04-07T04:18:09.587Z,99332.36
2019-04-07T04:20:37.355Z,99336.87
2019-04-07T04:23:05.838Z,99336.42
2019-04-07T04:25:34.094Z,99337.59
2019-04-07T04:28:01.700Z,99339.03
2019-04-07T04:30:29.921Z,99341.27
2019-04-07T04:32:57.477Z,99342.91
2019-04-07T04:35:24.902Z,99345.89
2019-04-07T04:37:53.925Z,99342.70
2019-04-07T04:40:22.232Z,99350.97
2019-04-07T04:42:50.417Z,99356.66
2019-04-07T04:45:18.029Z,99353.37
2019-04-07T04:47:46.340Z,99355.94
2019-04-07T04:50:14.801Z,99361.53
2019-04-07T04:52:42.807Z,99356.19
2019-04-07T04:55:11.236Z,99360.95
2019-04-07T04:57:38.828Z,99361.53
2019-04-07T05:00:06.441Z,99364.96
2019-04-07T05:02:33.873Z,99366.16
2019-04-07T05:05:02.454Z,99370.52
2019-04-07T05:07:30.190Z,99378.13
2019-04-07T05:09:57.728Z,99384.77
2019-04-07T05:12:25.217Z,99381.44
2019-04-07T05:14:53.644Z,99384.75
2019-04-07T05:17:21.092Z,99381.77
2019-04-07T05:19:48.481Z,99382.00
2019-04-07T05:22:16.708Z,99388.23
2019-04-07T05:24:44.312Z,99380.86
2019-04-07T05:27:11.694Z,99380.03
2019-04-07T05:29:39.134Z,99381.81
2019-04-07T05:32:06.882Z,99388.27
2019-04-07T05:34:34.583Z,99386.39
2019-04-07T05:37:02.194Z,99395.78
2019-04-07T05:39:29.827Z,99391.37
2019-04-07T05:41:57.200Z,99396.16
2019-04-07T05:44:24.837Z,99393.38
2019-04-07T05:46:52.824Z,99393.03
2019-04-07T05:49:22.578Z,99395.70
2019-04-07T05:51:50.111Z,99403.03
2019-04-07T05:54:19.783Z,99405.97
2019-04-07T05:56:47.013Z,99412.28
2019-04-07T05:59:14.775Z,99409.34
2019-04-07T06:01:43.053Z,99405.49
2019-04-07T06:04:14.325Z,99410.41
2019-04-07T06:06:41.763Z,99410.39
2019-04-07T06:09:09.465Z,99407.27
2019-04-07T06:11:38.911Z,99412.30
2019-04-07T06:14:06.316Z,99414.17
2019-04-07T06:16:34.364Z,99408.65
2019-04-07T06:19:06.463Z,99418.25
2019-04-07T06:21:31.266Z,99412.32
2019-04-07T06:24:00.625Z,99421.13
2019-04-07T06:26:28.105Z,99421.73
2019-04-07T06:28:58.500Z,99417.95
2019-04-07T06:31:26.305Z,99420.53
2019-04-07T06:33:55.074Z,99419.72
2019-04-07T06:36:25.461Z,99417.88
2019-04-07T06:38:52.916Z,99421.35
2019-04-07T06:41:21.762Z,99414.09
2019-04-07T06:43:49.663Z,99409.05
2019-04-07T06:46:39.301Z,99411.00
2019-04-07T06:49:15.315Z,99412.33
2019-04-07T06:52:03.599Z,99412.93
2019-04-07T06:54:50.122Z,99423.33
2019-04-07T06:57:37.731Z,99426.88
2019-04-07T07:00:25.675Z,99420.51
2019-04-07T07:03:11.686Z,99416.42
2019-04-07T07:06:11.103Z,99412.95
2019-04-07T07:08:46.799Z,99403.32
2019-04-07T07:11:40.396Z,99406.23
2019-04-07T07:14:30.342Z,99407.39
2019-04-07T07:17:04.053Z,99417.13
2019-04-07T07:19:41.206Z,99412.63
2019-04-07T07:22:14.818Z,99415.44
2019-04-07T07:24:41.721Z,99412.64
2019-04-07T07:27:11.274Z,99415.71
2019-04-07T07:29:38.715Z,99412.09
2019-04-07T07:32:06.461Z,99415.41
2019-04-07T07:34:35.856Z,99403.97
2019-04-07T07:37:04.054Z,99405.75
2019-04-07T07:39:31.614Z,99398.83
2019-04-07T07:41:59.371Z,99389.63
2019-04-07T07:44:27.734Z,99405.69
2019-04-07T07:46:55.528Z,99405.69
2019-04-07T07:49:22.946Z,99386.25
2019-04-07T07:51:50.630Z,99387.73
2019-04-07T07:54:18.278Z,99405.56
2019-04-07T07:56:48.536Z,99398.99
2019-04-07T07:59:15.142Z,99400.34
2019-04-07T08:01:46.235Z,99388.69
2019-04-07T08:04:12.006Z,99386.80
2019-04-07T08:06:41.047Z,99378.41
2019-04-07T08:09:13.738Z,99378.77
2019-04-07T08:11:38.931Z,99393.66
2019-04-07T08:14:06.732Z,99393.20
2019-04-07T08:16:34.647Z,99398.34
2019-04-07T08:19:03.873Z,99382.16
2019-04-07T08:21:31.642Z,99387.11
2019-04-07T08:23:59.100Z,99403.55
2019-04-07T08:26:26.596Z,99409.88
2019-04-07T08:28:54.751Z,99409.88
2019-04-07T08:31:22.950Z,99419.97
2019-04-07T08:33:51.599Z,99425.47
2019-04-07T08:36:19.800Z,99418.92
2019-04-07T08:38:47.721Z,99422.08
2019-04-07T08:41:16.663Z,99404.43
2019-04-07T08:43:44.247Z,99415.95
2019-04-07T08:46:12.026Z,99408.86
2019-04-07T08:48:40.182Z,99397.92
2019-04-07T08:51:08.508Z,99396.25
2019-04-07T08:53:36.097Z,99402.61
2019-04-07T08:56:06.364Z,99407.56
2019-04-07T08:58:36.893Z,99399.98
2019-04-07T09:01:03.312Z,99407.78
2019-04-07T09:03:31.450Z,99402.58
2019-04-07T09:05:59.797Z,99406.23
2019-04-07T09:08:27.335Z,99407.27
2019-04-07T09:11:09.058Z,99397.31
2019-04-07T09:13:37.197Z,99395.80
2019-04-07T09:16:41.578Z,99403.45
2019-04-07T09:19:27.265Z,99424.59
2019-04-07T09:22:14.317Z,99414.07
2019-04-07T09:25:10.887Z,99402.48
2019-04-07T09:27:52.269Z,99402.48
2019-04-07T09:31:00.289Z,99410.53
2019-04-07T09:33:48.141Z,99414.49
2019-04-07T09:36:51.111Z,99420.48
2019-04-07T09:39:55.389Z,99408.03
2019-04-07T09:42:42.052Z,99419.80
2019-04-07T09:45:30.132Z,99411.33
2019-04-07T09:48:19.167Z,99422.72
2019-04-07T09:51:20.826Z,99406.22
2019-04-07T09:54:11.019Z,99416.86
2019-04-07T09:57:19.067Z,99416.15
2019-04-07T09:59:55.687Z,99421.39
2019-04-07T10:02:42.682Z,99419.34
2019-04-07T10:05:30.986Z,99430.50
2019-04-07T10:08:20.918Z,99420.39
2019-04-07T10:11:19.780Z,99420.04
2019-04-07T10:14:10.017Z,99413.19
2019-04-07T10:16:53.032Z,99426.31
2019-04-07T10:19:55.534Z,99415.55
2019-04-07T10:22:46.164Z,99407.37
2019-04-07T10:25:29.018Z,99412.00
2019-04-07T10:28:07.214Z,99407.75
2019-04-07T10:30:58.659Z,99422.33
2019-04-07T10:33:46.089Z,99400.49
2019-04-07T10:36:33.036Z,99415.95
2019-04-07T10:39:39.160Z,99416.18
2019-04-07T10:42:38.061Z,99402.05
2019-04-07T10:45:26.184Z,99423.25
2019-04-07T10:48:28.603Z,99413.84
2019-04-07T10:51:10.519Z,99397.91
2019-04-07T10:53:56.306Z,99400.09
2019-04-07T10:56:48.374Z,99395.14
2019-04-07T10:59:37.260Z,99392.38
2019-04-07T11:02:13.467Z,99401.61
2019-04-07T11:05:02.914Z,99384.97
2019-04-07T11:07:43.847Z,99379.42
2019-04-07T11:10:35.208Z,99384.84
2019-04-07T11:13:49.994Z,99364.77
2019-04-07T11:19:45.366Z,99379.16
2019-04-07T11:22:44.188Z,99361.20
2019-04-07T11:25:37.120Z,99362.09
2019-04-07T11:28:39.007Z,99366.17
2019-04-07T11:31:29.147Z,99371.09
2019-04-07T11:34:22.718Z,99367.85
2019-04-07T11:37:25.108Z,99369.41
2019-04-07T11:40:24.881Z,99380.25
2019-04-07T11:43:02.296Z,99374.61
2019-04-07T11:45:53.243Z,99387.95
2019-04-07T11:48:30.890Z,99374.52
2019-04-07T11:54:41.468Z,99378.31
2019-04-07T11:57:41.169Z,99382.20
2019-04-07T12:01:12.814Z,99366.45
2019-04-07T12:04:31.659Z,99374.33
2019-04-07T12:07:30.533Z,99369.48
2019-04-07T12:10:40.830Z,99384.23
2019-04-07T12:13:34.884Z,99384.89
2019-04-07T12:16:30.386Z,99365.25
2019-04-07T12:19:56.840Z,99368.44
2019-04-07T12:23:04.780Z,99371.19
2019-04-07T12:26:05.916Z,99368.45
2019-04-07T12:29:12.981Z,99382.77
2019-04-07T12:32:04.003Z,99362.44
2019-04-07T12:34:45.855Z,99380.72
2019-04-07T12:37:30.591Z,99353.80
2019-04-07T12:40:39.370Z,99352.83
2019-04-07T12:43:07.333Z,99353.55
2019-04-07T12:46:19.325Z,99363.38
2019-04-07T12:49:16.408Z,99372.79
2019-04-07T12:52:03.106Z,99347.66
2019-04-07T12:55:19.289Z,99337.41
2019-04-07T12:58:28.740Z,99344.93
2019-04-07T13:01:19.713Z,99329.45
2019-04-07T13:04:06.806Z,99335.08
2019-04-07T13:07:01.331Z,99343.92
2019-04-07T13:09:51.711Z,99342.41
2019-04-07T13:12:46.634Z,99349.22
2019-04-07T13:15:30.299Z,99365.57
2019-04-07T13:18:19.372Z,99357.20
2019-04-07T13:21:22.041Z,99353.94
2019-04-07T13:24:50.908Z,99364.39
2019-04-07T13:27:54.201Z,99358.56
2019-04-07T13:30:41.517Z,99358.31
2019-04-07T13:35:22.682Z,99353.00
2019-04-07T13:40:21.756Z,99365.80
2019-04-07T13:43:33.195Z,99352.58
2019-04-07T13:46:43.314Z,99346.75
2019-04-07T13:49:41.356Z,99351.83
2019-04-07T13:52:41.524Z,99348.34
2019-04-07T13:55:41.118Z,99338.78
2019-04-07T14:03:00.235Z,99326.36
2019-04-07T14:04:59.910Z,99331.13
2019-04-07T14:08:52.996Z,99337.92
2019-04-07T14:12:10.054Z,99340.64
2019-04-07T14:18:17.442Z,99348.27
2019-04-07T14:21:14.807Z,99352.78
2019-04-07T14:24:14.414Z,99345.70
2019-04-07T14:26:51.937Z,99336.51
2019-04-07T14:29:46.041Z,99335.08
2019-04-07T14:32:27.353Z,99343.88
2019-04-07T14:35:18.418Z,99351.22
2019-04-07T14:41:29.938Z,99340.79
2019-04-07T14:44:16.052Z,99332.41
2019-04-07T14:47:12.830Z,99339.55
2019-04-07T14:50:50.425Z,99345.91
2019-04-07T14:53:43.145Z,99344.17
2019-04-07T14:56:50.833Z,99331.98
2019-04-07T14:59:38.420Z,99338.11
2019-04-07T15:02:10.559Z,99344.89
2019-04-07T15:04:47.735Z,99351.28
2019-04-07T15:07:34.562Z,99348.89
2019-04-07T15:10:12.385Z,99345.83
2019-04-07T15:12:55.625Z,99334.05
2019-04-07T15:15:23.688Z,99334.05
2019-04-07T15:18:16.499Z,99336.30
2019-04-07T15:20:47.384Z,99339.68
2019-04-07T15:23:31.909Z,99340.17
2019-04-07T15:25:59.069Z,99337.33
2019-04-07T15:28:31.422Z,99324.81
2019-04-07T15:31:06.081Z,99337.52
2019-04-07T15:33:39.566Z,99340.50
2019-04-07T15:36:10.783Z,99335.67
2019-04-07T15:38:41.435Z,99340.52
2019-04-07T15:41:19.079Z,99342.64
2019-04-07T15:43:48.880Z,99343.68
2019-04-07T15:46:19.552Z,99342.66
2019-04-07T15:49:07.895Z,99346.77
2019-04-07T15:51:37.717Z,99350.64
2019-04-07T15:56:59.960Z,99361.71
2019-04-07T15:59:34.168Z,99357.92
2019-04-07T16:02:13.480Z,99358.90
2019-04-07T16:04:49.391Z,99354.72
2019-04-07T16:07:59.292Z,99352.56
2019-04-07T16:10:23.921Z,99356.87
2019-04-07T16:12:59.419Z,99357.49
2019-04-07T16:15:34.064Z,99360.65
2019-04-07T16:18:04.771Z,99365.88
2019-04-07T16:20:37.254Z,99357.14
2019-04-07T16:23:05.883Z,99363.80
2019-04-07T16:25:40.217Z,99371.09
2019-04-07T16:28:11.378Z,99365.62
2019-04-07T16:30:39.449Z,99371.58
2019-04-07T16:33:07.739Z,99375.66
2019-04-07T16:35:36.523Z,99376.57
2019-04-07T16:38:05.273Z,99377.61
2019-04-07T16:40:33.905Z,99378.01
2019-04-07T16:43:11.531Z,99375.53
2019-04-07T16:45:33.953Z,99383.30
2019-04-07T16:48:04.504Z,99376.53
2019-04-07T16:50:31.963Z,99388.39
2019-04-07T16:53:06.552Z,99395.52
2019-04-07T16:55:39.963Z,99392.34
2019-04-07T16:58:17.757Z,99396.95
2019-04-07T17:00:49.696Z,99407.06
2019-04-07T17:03:24.053Z,99406.20
2019-04-07T17:05:57.528Z,99409.77
2019-04-07T17:08:24.970Z,99413.13
2019-04-07T17:10:54.477Z,99413.84
2019-04-07T17:13:34.504Z,99417.58
2019-04-07T17:15:54.079Z,99418.38
2019-04-07T17:18:36.856Z,99424.72
2019-04-07T17:21:10.317Z,99422.75
2019-04-07T17:23:39.614Z,99422.81
2019-04-07T17:26:11.640Z,99435.07
2019-04-07T17:28:44.434Z,99433.95
2019-04-07T17:31:11.871Z,99428.30
2019-04-07T17:33:39.942Z,99439.20
2019-04-07T17:36:07.979Z,99443.84
2019-04-07T17:38:51.942Z,99445.56
2019-04-07T17:41:20.184Z,99446.97
2019-04-07T17:44:22.401Z,99450.06
2019-04-07T17:47:00.568Z,99449.93
2019-04-07T17:49:59.227Z,99461.50
2019-04-07T17:53:14.028Z,99467.66
2019-04-07T17:55:58.958Z,99466.20
2019-04-07T17:58:44.221Z,99461.02
2019-04-07T18:01:36.047Z,99466.14
2019-04-07T18:04:29.227Z,99463.73
2019-04-07T18:07:15.083Z,99466.55
2019-04-07T18:10:06.907Z,99469.59
2019-04-07T18:12:51.558Z,99473.67
2019-04-07T18:15:42.073Z,99483.06
2019-04-07T18:18:28.263Z,99487.97
2019-04-07T18:21:16.863Z,99483.41
2019-04-07T18:24:06.445Z,99496.40
2019-04-07T18:27:01.632Z,99496.26
2019-04-07T18:29:46.028Z,99498.33
2019-04-07T18:32:27.762Z,99497.73
2019-04-07T18:35:23.882Z,99505.41
2019-04-07T18:41:16.712Z,99512.50
2019-04-07T18:44:06.956Z,99517.03
2019-04-07T18:46:50.160Z,99518.38
2019-04-07T18:49:35.493Z,99528.70
2019-04-07T18:52:27.689Z,99529.42
2019-04-07T18:55:13.978Z,99536.28
2019-04-07T18:57:50.864Z,99545.16
2019-04-07T19:00:39.215Z,99543.55
2019-04-07T19:03:29.946Z,99551.55
2019-04-07T19:06:20.397Z,99546.62
2019-04-07T19:09:10.101Z,99551.95
2019-04-07T19:12:07.560Z,99553.14
2019-04-07T19:14:47.283Z,99560.31
2019-04-07T19:17:34.904Z,99565.05
2019-04-07T19:20:22.880Z,99568.30
2019-04-07T19:23:16.442Z,99557.20
2019-04-07T19:26:16.423Z,99561.15
2019-04-07T19:28:56.329Z,99563.16
2019-04-07T19:31:39.748Z,99577.77
2019-04-07T19:34:43.178Z,99580.13
2019-04-07T19:37:34.717Z,99584.09
2019-04-07T19:40:10.067Z,99579.18
2019-04-07T19:43:05.826Z,99581.16
2019-04-07T19:45:55.265Z,99578.69
2019-04-07T19:48:57.707Z,99585.13
2019-04-07T19:52:03.287Z,99566.64
2019-04-07T19:55:01.595Z,99576.70
2019-04-07T19:57:50.992Z,99575.97
2019-04-07T20:00:37.240Z,99578.26
2019-04-07T20:03:24.177Z,99578.09
2019-04-07T20:06:12.889Z,99584.52
2019-04-07T20:08:57.854Z,99575.72
2019-04-07T20:11:48.272Z,99582.43
2019-04-07T20:14:45.108Z,99583.25
2019-04-07T20:17:21.070Z,99583.39
2019-04-07T20:20:04.215Z,99586.70
2019-04-07T20:22:44.508Z,99588.31
2019-04-07T20:25:25.157Z,99592.23
2019-04-07T20:28:09.758Z,99590.73
2019-04-07T20:30:48.576Z,99592.55
2019-04-07T20:33:38.057Z,99591.69
2019-04-07T20:36:40.778Z,99592.65
2019-04-07T20:39:21.680Z,99589.19
2019-04-07T20:42:18.008Z,99593.50
2019-04-07T20:45:03.436Z,99598.06
2019-04-07T20:47:34.983Z,99593.59
2019-04-07T20:50:14.286Z,99595.68
2019-04-07T20:52:49.198Z,99595.45
2019-04-07T20:55:37.445Z,99589.61
2019-04-07T20:58:41.621Z,99590.52
2019-04-07T21:01:21.204Z,99590.98
2019-04-07T21:04:12.863Z,99590.16
2019-04-07T21:07:05.971Z,99587.88
2019-04-07T21:09:51.673Z,99586.38
2019-04-07T21:12:45.451Z,99584.30
2019-04-07T21:15:43.167Z,99594.59
2019-04-07T21:18:24.033Z,99590.63
2019-04-07T21:21:02.732Z,99596.61
2019-04-07T21:23:49.816Z,99598.75
2019-04-07T21:26:37.151Z,99607.47
2019-04-07T21:29:14.878Z,99602.02
2019-04-07T21:32:01.757Z,99603.02
2019-04-07T21:34:44.982Z,99603.79
2019-04-07T21:37:26.149Z,99595.97
2019-04-07T21:40:14.356Z,99609.53
2019-04-07T21:43:00.516Z,99610.35
2019-04-07T21:45:50.404Z,99609.80
2019-04-07T21:48:47.467Z,99608.97
2019-04-07T21:51:41.034Z,99613.41
2019-04-07T21:54:16.015Z,99618.97
2019-04-07T21:57:02.332Z,99616.43
2019-04-07T21:59:36.306Z,99618.17
2019-04-07T22:02:15.608Z,99618.42
2019-04-07T22:05:07.579Z,99622.88
2019-04-07T22:07:43.985Z,99623.91
2019-04-07T22:10:13.680Z,99621.38
2019-04-07T22:12:42.326Z,99627.44
2019-04-07T22:15:13.968Z,99625.38
2019-04-07T22:17:41.001Z,99627.55
2019-04-07T22:20:09.046Z,99629.67
2019-04-07T22:22:37.612Z,99629.69
2019-04-07T22:25:07.110Z,99630.21
2019-04-07T22:27:35.443Z,99625.80
2019-04-07T22:30:06.572Z,99627.94
2019-04-07T22:32:35.285Z,99630.41
2019-04-07T22:35:06.575Z,99633.34
2019-04-07T22:37:34.518Z,99631.90
2019-04-07T22:40:03.454Z,99626.08
2019-04-07T22:42:31.266Z,99631.57
2019-04-07T22:44:59.862Z,99636.21
2019-04-07T22:47:27.938Z,99629.56
2019-04-07T22:49:56.888Z,99631.03
2019-04-07T22:52:24.782Z,99628.13
2019-04-07T22:54:52.621Z,99625.94
2019-04-07T22:57:20.223Z,99627.33
2019-04-07T22:59:48.306Z,99622.63
2019-04-07T23:02:16.365Z,99628.77
2019-04-07T23:04:45.243Z,99631.12
2019-04-07T23:07:13.792Z,99626.76
2019-04-07T23:09:41.814Z,99628.63
2019-04-07T23:12:09.439Z,99636.45
2019-04-07T23:14:37.941Z,99627.26
2019-04-07T23:17:07.899Z,99634.55
2019-04-07T23:19:35.658Z,99633.40
2019-04-07T23:22:03.638Z,99628.33
2019-04-07T23:24:31.227Z,99628.89
2019-04-07T23:26:58.921Z,99629.98
2019-04-07T23:29:26.697Z,99630.07
2019-04-07T23:31:55.565Z,99630.14
2019-04-07T23:34:23.892Z,99627.42
2019-04-07T23:36:52.090Z,99629.95
2019-04-07T23:39:20.015Z,99630.27
2019-04-07T23:41:47.903Z,99630.47
2019-04-07T23:44:16.087Z,99634.70
2019-04-07T23:46:44.016Z,99631.94
2019-04-07T23:49:11.967Z,99631.98
2019-04-07T23:51:39.520Z,99635.37
2019-04-07T23:54:14.318Z,99632.09
2019-04-07T23:56:43.727Z,99637.98
2019-04-07T23:59:11.549Z,99635.20
